Time;durP1;ratioP1;P1;durP2;ratioP2;P2;SDS_P1;SDS_P2;PMS_P1;PMS_P2;Temp;Humidity;BMP_temperature;BMP_pressure;BME280_temperature;BME280_humidity;BME280_pressure;Samples;Min_cycle;Max_cycle;Signal;HPM_P1;HPM_P2
2022/05/07 00:01:33;;;;;;;22.48;3.92;;;21.40;45.80;20.30;101904.00;;;;5037905;28;20041;-66
2022/05/07 00:04:19;;;;;;;15.85;3.15;;;21.40;45.80;20.30;101894.00;;;;5039889;28;20041;-66
2022/05/07 00:07:05;;;;;;;17.25;2.97;;;21.30;46.10;20.30;101900.00;;;;5039490;28;20041;-66
2022/05/07 00:09:51;;;;;;;11.18;3.15;;;21.30;45.80;20.30;101896.00;;;;5035000;28;20057;-66
2022/05/07 00:12:37;;;;;;;11.18;2.95;;;21.30;45.80;20.30;101902.00;;;;5024274;28;20037;-66
2022/05/07 00:15:24;;;;;;;9.25;2.92;;;21.30;45.80;20.30;101901.00;;;;5036133;28;20045;-66
2022/05/07 00:18:11;;;;;;;12.88;3.22;;;21.30;45.80;20.30;101902.00;;;;5021715;28;20056;-66
2022/05/07 00:20:57;;;;;;;10.48;2.97;;;21.30;45.90;20.30;101901.00;;;;5038336;28;20056;-67
2022/05/07 00:23:43;;;;;;;11.80;2.78;;;21.30;45.90;20.30;101899.00;;;;5038131;28;20084;-66
2022/05/07 00:26:29;;;;;;;9.02;2.50;;;21.30;45.90;20.30;101896.00;;;;5042046;28;20363;-66
2022/05/07 00:29:15;;;;;;;10.13;3.05;;;21.30;45.90;20.30;101889.00;;;;5042029;28;20132;-66
2022/05/07 00:32:01;;;;;;;7.82;2.88;;;21.10;45.80;20.30;101884.00;;;;5036572;28;20085;-66
2022/05/07 00:34:47;;;;;;;10.10;2.60;;;21.20;46.60;20.30;101889.00;;;;5049713;28;20052;-66
2022/05/07 00:37:33;;;;;;;6.35;2.40;;;21.20;45.90;20.20;101884.00;;;;5036429;28;20513;-66
2022/05/07 00:40:19;;;;;;;9.90;3.05;;;21.20;45.90;20.20;101885.00;;;;5020672;28;20048;-66
2022/05/07 00:43:05;;;;;;;7.93;2.65;;;21.20;45.90;20.20;101880.00;;;;5036056;28;20052;-66
2022/05/07 00:45:52;;;;;;;8.80;2.45;;;21.20;46.00;20.20;101877.00;;;;5036427;28;20045;-66
2022/05/07 00:48:38;;;;;;;9.43;2.50;;;21.20;46.00;20.20;101876.00;;;;5024908;28;20056;-66
2022/05/07 00:51:33;;;;;;;9.23;3.38;;;21.10;46.00;20.20;101876.00;;;;5037057;28;20052;-66
2022/05/07 00:54:20;;;;;;;8.95;2.40;;;21.10;46.00;20.20;101872.00;;;;5023729;28;20331;-66
2022/05/07 00:57:08;;;;;;;7.25;2.60;;;21.20;46.00;20.20;101878.00;;;;5039923;28;20049;-66
2022/05/07 00:59:54;;;;;;;7.00;2.42;;;21.10;46.00;20.20;101871.00;;;;5029105;28;20544;-66
2022/05/07 01:02:41;;;;;;;6.85;2.70;;;21.10;46.10;20.20;101865.00;;;;5021803;28;20040;-66
2022/05/07 01:05:28;;;;;;;7.67;2.87;;;21.10;46.10;20.20;101877.00;;;;5026735;28;20036;-66
2022/05/07 01:08:14;;;;;;;4.78;2.10;;;21.10;46.10;20.10;101863.00;;;;5034555;28;20052;-66
2022/05/07 01:11:00;;;;;;;6.18;2.70;;;21.10;46.10;20.10;101865.00;;;;5006198;28;20041;-66
2022/05/07 01:13:47;;;;;;;5.32;2.22;;;21.10;46.10;20.10;101861.00;;;;5020789;28;20037;-66
2022/05/07 01:16:33;;;;;;;4.82;2.10;;;21.10;46.20;20.10;101863.00;;;;5022618;28;20167;-66
2022/05/07 01:19:19;;;;;;;5.28;2.10;;;21.10;46.20;20.10;101857.00;;;;5019150;28;20490;-66
2022/05/07 01:22:05;;;;;;;6.30;2.80;;;21.10;46.20;20.10;101856.00;;;;5037360;28;20041;-66
2022/05/07 01:24:51;;;;;;;4.70;2.03;;;21.00;46.20;20.10;101854.00;;;;5005903;28;20379;-66
2022/05/07 01:27:37;;;;;;;5.55;2.40;;;21.00;46.20;20.10;101851.00;;;;5032423;28;20033;-66
2022/05/07 01:30:24;;;;;;;4.82;1.90;;;21.00;46.30;20.10;101853.00;;;;5030486;28;20051;-66
2022/05/07 01:33:10;;;;;;;6.25;2.42;;;21.00;46.20;20.10;101852.00;;;;5022534;28;20041;-66
2022/05/07 01:35:56;;;;;;;5.03;2.10;;;21.00;47.00;20.10;101850.00;;;;5032300;28;20387;-67
2022/05/07 01:38:42;;;;;;;6.53;2.22;;;21.00;46.30;20.10;101850.00;;;;5036818;28;20037;-66
2022/05/07 01:41:28;;;;;;;10.38;3.05;;;21.00;46.30;20.00;101846.00;;;;5035941;28;20047;-66
2022/05/07 01:44:14;;;;;;;6.18;2.70;;;21.00;46.40;20.00;101853.00;;;;5032277;28;20394;-66
2022/05/07 01:50:06;;;;;;;4.45;2.35;;;21.00;46.40;20.00;101844.00;;;;5038445;28;20805;-66
2022/05/07 01:52:52;;;;;;;4.65;2.30;;;20.90;46.30;20.00;101845.00;;;;5037211;28;20056;-66
2022/05/07 01:55:38;;;;;;;3.60;2.03;;;20.90;46.30;20.00;101842.00;;;;5036078;28;20879;-66
2022/05/07 01:58:24;;;;;;;6.75;2.20;;;20.90;46.40;20.00;101841.00;;;;5034462;28;20056;-66
2022/05/07 02:01:10;;;;;;;2.83;2.40;;;20.90;46.40;20.00;101840.00;;;;5024805;28;20049;-66
2022/05/07 02:03:56;;;;;;;3.17;2.03;;;20.90;46.40;20.00;101847.00;;;;5035269;28;20466;-66
2022/05/07 02:06:42;;;;;;;2.60;2.30;;;20.90;46.40;20.00;101850.00;;;;5034033;28;20095;-66
2022/05/07 02:09:29;;;;;;;5.70;2.33;;;20.90;46.40;20.00;101843.00;;;;5040458;28;20040;-66
2022/05/07 02:12:15;;;;;;;6.68;2.05;;;20.90;47.10;20.00;101844.00;;;;5035575;28;20100;-66
2022/05/07 02:15:01;;;;;;;3.58;2.03;;;20.90;46.40;20.00;101842.00;;;;5025993;28;20051;-67
2022/05/07 02:17:47;;;;;;;3.92;1.85;;;20.90;46.40;20.00;101843.00;;;;5011757;28;20041;-66
2022/05/07 02:20:34;;;;;;;4.47;1.85;;;20.80;46.40;19.90;101847.00;;;;5038915;28;20049;-66
2022/05/07 02:23:20;;;;;;;3.13;2.25;;;20.80;46.40;19.90;101833.00;;;;5044159;28;20103;-66
2022/05/07 02:26:06;;;;;;;2.80;1.98;;;20.80;46.40;19.90;101835.00;;;;5040170;28;20135;-66
2022/05/07 02:28:52;;;;;;;3.35;1.92;;;20.80;46.40;19.90;101838.00;;;;5039648;28;20053;-66
2022/05/07 02:31:38;;;;;;;2.92;1.80;;;20.80;46.40;19.90;101841.00;;;;5026507;28;20033;-66
2022/05/07 02:34:24;;;;;;;5.00;2.65;;;20.80;46.50;19.90;101841.00;;;;5043921;28;20747;-66
2022/05/07 02:37:10;;;;;;;9.30;2.65;;;20.80;46.50;19.90;101834.00;;;;5038071;28;20037;-66
2022/05/07 02:39:56;;;;;;;3.03;2.15;;;20.80;46.50;19.90;101836.00;;;;5028276;28;20037;-66
2022/05/07 02:42:44;;;;;;;2.47;1.98;;;20.80;46.50;19.90;101832.00;;;;5045680;28;20868;-66
2022/05/07 02:45:30;;;;;;;3.60;2.10;;;20.80;46.50;19.90;101841.00;;;;5033683;28;20041;-66
2022/05/07 02:48:16;;;;;;;2.03;1.80;;;20.80;46.50;19.90;101836.00;;;;5042703;28;20044;-66
2022/05/07 02:51:03;;;;;;;3.65;2.05;;;20.80;46.50;19.90;101840.00;;;;5041451;28;20386;-66
2022/05/07 02:53:49;;;;;;;3.45;2.42;;;20.80;46.50;19.90;101840.00;;;;5037471;28;20041;-66
2022/05/07 02:56:35;;;;;;;2.60;2.00;;;20.80;46.50;19.90;101836.00;;;;5042769;28;20040;-66
2022/05/07 02:59:21;;;;;;;2.65;2.00;;;20.70;46.50;19.90;101839.00;;;;5037180;28;20044;-66
2022/05/07 03:02:07;;;;;;;2.40;2.17;;;20.80;46.50;19.90;101845.00;;;;5033936;28;20124;-66
2022/05/07 03:04:53;;;;;;;3.83;2.50;;;20.70;46.50;19.90;101840.00;;;;5022521;28;20111;-66
2022/05/07 03:07:39;;;;;;;3.10;2.03;;;20.60;46.40;19.90;101843.00;;;;5039424;28;20037;-66
2022/05/07 03:10:46;;;;;;;2.10;1.88;;;20.70;46.50;19.80;101847.00;;;;5026193;28;20037;-67
2022/05/07 03:13:32;;;;;;;3.35;2.28;;;20.70;46.50;19.80;101848.00;;;;5029611;28;20102;-67
2022/05/07 03:16:18;;;;;;;3.08;2.05;;;20.70;46.50;19.80;101838.00;;;;5043148;28;20052;-66
2022/05/07 03:19:07;;;;;;;2.20;1.98;;;20.70;46.40;19.80;101840.00;;;;5034525;28;20077;-66
2022/05/07 03:21:54;;;;;;;2.53;2.05;;;20.70;46.50;19.80;101843.00;;;;5034247;28;20622;-66
2022/05/07 03:24:41;;;;;;;2.60;2.10;;;20.70;46.50;19.80;101839.00;;;;5022938;28;20040;-66
2022/05/07 03:27:29;;;;;;;1.88;1.70;;;20.70;46.50;19.80;101835.00;;;;5043962;28;20025;-66
2022/05/07 03:30:15;;;;;;;2.30;2.10;;;20.70;46.50;19.80;101841.00;;;;5041223;28;20105;-66
2022/05/07 03:33:01;;;;;;;4.80;2.05;;;20.70;46.50;19.80;101839.00;;;;5035028;28;20671;-66
2022/05/07 03:35:48;;;;;;;2.20;1.83;;;20.70;46.50;19.80;101842.00;;;;5035900;28;20045;-66
2022/05/07 03:38:34;;;;;;;3.47;2.10;;;20.70;46.50;19.80;101841.00;;;;5039726;28;20056;-66
2022/05/07 03:41:20;;;;;;;2.25;1.85;;;20.70;46.50;19.80;101842.00;;;;5036975;28;20279;-66
2022/05/07 03:44:06;;;;;;;2.63;1.63;;;20.70;46.40;19.80;101847.00;;;;5041070;28;20128;-67
2022/05/07 03:46:52;;;;;;;2.95;1.70;;;20.60;46.40;19.80;101846.00;;;;5023193;28;20406;-66
2022/05/07 03:49:38;;;;;;;2.15;1.60;;;20.60;46.40;19.80;101851.00;;;;5020099;28;20048;-66
2022/05/07 03:55:29;;;;;;;2.20;2.00;;;20.60;46.50;19.80;101846.00;;;;5041560;28;20040;-66
2022/05/07 03:58:15;;;;;;;3.13;2.42;;;20.60;46.50;19.80;101852.00;;;;5041305;28;20104;-66
2022/05/07 04:01:02;;;;;;;2.22;2.03;;;20.60;46.50;19.70;101845.00;;;;5034907;28;20176;-66
2022/05/07 04:03:48;;;;;;;2.58;1.98;;;20.60;46.60;19.70;101851.00;;;;5036122;28;20124;-66
2022/05/07 04:06:34;;;;;;;3.30;2.00;;;20.60;46.60;19.70;101845.00;;;;5037672;28;20072;-66
2022/05/07 04:09:20;;;;;;;2.28;1.92;;;20.60;46.60;19.70;101838.00;;;;5035758;28;20792;-66
2022/05/07 04:12:06;;;;;;;3.75;2.25;;;20.60;46.60;19.70;101844.00;;;;5038033;28;20037;-66
2022/05/07 04:14:52;;;;;;;3.30;2.20;;;20.60;46.60;19.70;101839.00;;;;5034292;28;20045;-66
2022/05/07 04:17:39;;;;;;;4.63;2.20;;;20.60;46.50;19.70;101838.00;;;;5032840;28;20509;-66
2022/05/07 04:20:25;;;;;;;2.13;1.92;;;20.60;46.50;19.70;101846.00;;;;5036422;28;20114;-66
2022/05/07 04:23:11;;;;;;;2.70;1.95;;;20.70;46.60;19.70;101842.00;;;;5020505;28;20061;-66
2022/05/07 04:25:57;;;;;;;2.17;1.98;;;20.60;46.50;19.70;101840.00;;;;5039262;28;20064;-66
2022/05/07 04:28:43;;;;;;;2.72;2.17;;;20.60;46.50;19.70;101848.00;;;;5037862;28;20037;-66
2022/05/07 04:31:29;;;;;;;5.32;2.15;;;20.60;46.50;19.70;101852.00;;;;5035998;28;20438;-66
2022/05/07 04:34:15;;;;;;;3.97;2.30;;;20.60;46.50;19.70;101854.00;;;;5035251;28;20042;-66
2022/05/07 04:37:01;;;;;;;2.25;2.05;;;20.60;46.50;19.70;101851.00;;;;5031956;28;20053;-66
2022/05/07 04:39:47;;;;;;;2.78;2.25;;;20.60;46.50;19.70;101853.00;;;;5021054;28;20045;-66
2022/05/07 04:42:33;;;;;;;2.28;2.08;;;20.60;46.50;19.70;101852.00;;;;5037572;28;20040;-66
2022/05/07 04:45:19;;;;;;;2.50;2.08;;;20.60;46.50;19.70;101853.00;;;;5040933;28;20040;-66
2022/05/07 04:48:06;;;;;;;2.42;2.22;;;20.50;46.50;19.70;101850.00;;;;5022997;28;20981;-66
2022/05/07 04:50:52;;;;;;;2.53;2.33;;;20.50;46.40;19.70;101855.00;;;;5035929;28;20041;-66
2022/05/07 04:53:38;;;;;;;2.15;1.90;;;20.60;46.50;19.70;101858.00;;;;5033448;28;20049;-66
2022/05/07 04:56:24;;;;;;;2.60;2.40;;;20.60;46.50;19.70;101869.00;;;;5020161;28;20474;-66
2022/05/07 04:59:10;;;;;;;2.72;2.22;;;20.60;46.50;19.70;101871.00;;;;5036725;28;20048;-66
2022/05/07 05:01:57;;;;;;;3.08;2.38;;;20.60;46.50;19.70;101860.00;;;;5036355;28;20060;-66
2022/05/07 05:04:43;;;;;;;3.78;2.53;;;20.60;46.50;19.70;101857.00;;;;5018676;28;20037;-66
2022/05/07 05:07:29;;;;;;;2.50;2.15;;;20.50;46.50;19.70;101864.00;;;;5032653;28;20052;-66
2022/05/07 05:10:15;;;;;;;3.45;2.97;;;20.60;46.60;19.70;101861.00;;;;5030382;28;20084;-66
2022/05/07 05:13:01;;;;;;;2.95;2.45;;;20.60;46.50;19.70;101877.00;;;;5037468;28;20095;-66
2022/05/07 05:15:47;;;;;;;2.97;2.63;;;20.60;46.60;19.70;101863.00;;;;5043701;28;20043;-66
2022/05/07 05:18:33;;;;;;;2.88;2.50;;;20.50;46.50;19.70;101871.00;;;;5039557;28;20048;-66
2022/05/07 05:21:19;;;;;;;2.97;2.55;;;20.50;46.50;19.70;101872.00;;;;5035248;28;20052;-66
2022/05/07 05:24:05;;;;;;;3.70;2.90;;;20.60;46.60;19.70;101873.00;;;;5041890;28;20536;-66
2022/05/07 05:26:51;;;;;;;3.30;3.00;;;20.50;46.50;19.70;101870.00;;;;5029675;28;20518;-66
2022/05/07 05:29:37;;;;;;;3.60;2.70;;;20.60;46.60;19.70;101875.00;;;;5034990;28;20040;-66
2022/05/07 05:32:23;;;;;;;2.95;2.70;;;20.50;46.50;19.70;101881.00;;;;5046416;28;20110;-66
2022/05/07 05:35:09;;;;;;;3.53;2.95;;;20.60;46.50;19.70;101882.00;;;;5036599;28;20048;-66
2022/05/07 05:37:55;;;;;;;3.35;3.05;;;20.50;46.50;19.70;101884.00;;;;5039414;28;20037;-66
2022/05/07 05:40:42;;;;;;;3.30;2.95;;;20.60;46.50;19.70;101889.00;;;;5035839;28;20041;-66
2022/05/07 05:43:28;;;;;;;3.80;3.22;;;20.60;46.50;19.70;101880.00;;;;5016903;28;20097;-66
2022/05/07 05:46:14;;;;;;;4.90;3.83;;;20.60;46.50;19.70;101882.00;;;;5037914;28;20033;-66
2022/05/07 05:49:00;;;;;;;4.80;3.63;;;20.60;46.40;19.70;101882.00;;;;5030753;28;20045;-66
2022/05/07 05:51:46;;;;;;;4.28;3.58;;;20.60;46.30;19.70;101883.00;;;;5037565;28;20644;-66
2022/05/07 05:54:33;;;;;;;4.53;3.63;;;20.60;46.40;19.70;101885.00;;;;5037467;28;20041;-66
2022/05/07 05:57:19;;;;;;;3.83;3.33;;;20.60;46.30;19.70;101891.00;;;;5009185;28;20103;-66
2022/05/07 06:00:07;;;;;;;4.18;3.35;;;20.60;46.40;19.70;101888.00;;;;5039680;28;20048;-66
2022/05/07 06:02:53;;;;;;;7.18;3.42;;;20.60;46.40;19.70;101892.00;;;;5033219;28;20073;-66
2022/05/07 06:05:39;;;;;;;4.13;3.30;;;20.70;46.50;19.70;101889.00;;;;5040257;28;20049;-66
2022/05/07 06:08:25;;;;;;;4.38;3.45;;;20.60;46.30;19.70;101890.00;;;;5035041;28;20032;-66
2022/05/07 06:11:11;;;;;;;4.28;3.47;;;20.70;46.40;19.70;101888.00;;;;5036807;28;20044;-66
2022/05/07 06:13:57;;;;;;;4.78;3.53;;;20.70;46.50;19.70;101891.00;;;;5034956;28;20422;-66
2022/05/07 06:16:43;;;;;;;3.65;3.30;;;20.70;46.40;19.70;101893.00;;;;5022344;28;20045;-66
2022/05/07 06:19:30;;;;;;;5.05;3.38;;;20.70;46.40;19.80;101892.00;;;;5044536;28;20478;-66
2022/05/07 06:22:16;;;;;;;4.30;3.47;;;20.70;46.40;19.80;101893.00;;;;5034965;28;20037;-66
2022/05/07 06:28:08;;;;;;;5.70;3.30;;;20.70;46.40;19.80;101897.00;;;;5027601;28;20176;-66
2022/05/07 06:30:55;;;;;;;6.00;3.72;;;20.70;46.40;19.80;101894.00;;;;5037693;28;20152;-66
2022/05/07 06:33:41;;;;;;;4.03;3.28;;;20.80;46.40;19.80;101890.00;;;;5035421;28;20099;-66
2022/05/07 06:36:27;;;;;;;4.03;3.50;;;20.70;46.40;19.80;101894.00;;;;5032283;28;20036;-66
2022/05/07 06:39:15;;;;;;;4.40;3.53;;;20.80;46.40;19.80;101890.00;;;;5037458;28;20045;-66
2022/05/07 06:42:01;;;;;;;5.53;3.63;;;20.70;46.40;19.80;101889.00;;;;5033364;28;20049;-66
2022/05/07 06:44:47;;;;;;;4.57;3.50;;;20.80;46.40;19.80;101891.00;;;;5041897;28;20049;-66
2022/05/07 06:47:33;;;;;;;3.25;2.92;;;20.80;46.50;19.80;101891.00;;;;5048168;28;20060;-66
2022/05/07 06:50:19;;;;;;;5.07;3.65;;;20.80;46.40;19.80;101877.00;;;;5037774;28;20037;-66
2022/05/07 06:53:05;;;;;;;5.43;3.25;;;20.80;46.40;19.80;101894.00;;;;5047939;28;20177;-66
2022/05/07 06:56:01;;;;;;;5.90;3.95;;;20.80;46.40;19.80;101892.00;;;;5041957;28;20066;-66
2022/05/07 06:58:47;;;;;;;4.70;3.80;;;20.80;46.40;19.80;101893.00;;;;5040815;28;20041;-66
2022/05/07 07:01:33;;;;;;;4.82;3.63;;;20.80;46.40;19.80;101891.00;;;;5025291;28;20049;-66
2022/05/07 07:04:19;;;;;;;4.43;3.67;;;20.80;46.40;19.80;101895.00;;;;5031220;28;20048;-66
2022/05/07 07:07:07;;;;;;;5.70;3.92;;;20.80;46.30;19.80;101894.00;;;;5036636;28;20067;-66
2022/05/07 07:09:53;;;;;;;5.07;3.05;;;20.80;46.40;19.80;101900.00;;;;5043441;28;20052;-66
2022/05/07 07:12:40;;;;;;;7.18;3.80;;;20.90;46.50;19.80;101895.00;;;;5043005;28;20037;-66
2022/05/07 07:15:26;;;;;;;4.70;3.60;;;20.80;46.40;19.80;101901.00;;;;5042601;28;20138;-66
2022/05/07 07:18:12;;;;;;;4.57;3.80;;;20.90;46.40;19.80;101900.00;;;;5039605;28;20667;-66
2022/05/07 07:20:58;;;;;;;4.13;3.63;;;20.80;46.40;19.80;101906.00;;;;5047241;28;20041;-66
2022/05/07 07:23:44;;;;;;;5.97;3.70;;;20.90;46.40;19.80;101905.00;;;;5034976;28;20103;-66
2022/05/07 07:26:30;;;;;;;6.05;4.40;;;20.80;46.50;19.80;101906.00;;;;5050611;28;20038;-66
2022/05/07 07:29:16;;;;;;;6.22;4.25;;;20.90;46.50;19.80;101895.00;;;;5047843;28;20037;-67
2022/05/07 07:32:03;;;;;;;6.10;4.38;;;20.90;46.50;19.80;101902.00;;;;5025807;28;20033;-66
2022/05/07 07:34:49;;;;;;;4.90;4.07;;;20.90;46.50;19.80;101904.00;;;;5042624;28;20037;-66
2022/05/07 07:37:35;;;;;;;6.18;4.82;;;20.90;46.50;19.80;101909.00;;;;5048574;28;20049;-66
2022/05/07 07:40:21;;;;;;;4.80;4.10;;;20.90;46.50;19.80;101905.00;;;;5044313;28;20124;-66
2022/05/07 07:43:07;;;;;;;4.63;3.75;;;20.90;46.50;19.80;101910.00;;;;5039624;28;20041;-66
2022/05/07 07:48:58;;;;;;;5.35;3.88;;;20.90;46.50;19.80;101903.00;;;;5049464;28;20091;-66
2022/05/07 07:51:44;;;;;;;6.28;4.18;;;20.90;46.60;19.80;101910.00;;;;5032221;28;20052;-66
2022/05/07 07:54:30;;;;;;;5.05;4.00;;;20.90;46.60;19.80;101914.00;;;;5027191;28;20117;-66
2022/05/07 07:57:16;;;;;;;7.13;4.00;;;20.90;46.60;19.80;101906.00;;;;5042094;28;20478;-66
2022/05/07 08:00:03;;;;;;;5.70;4.22;;;20.90;46.60;19.80;101906.00;;;;5037779;28;20107;-66
2022/05/07 08:02:50;;;;;;;5.57;3.95;;;20.90;46.60;19.80;101911.00;;;;5039471;28;20042;-66
2022/05/07 08:05:36;;;;;;;4.85;3.80;;;20.80;46.60;19.80;101906.00;;;;5038537;28;20043;-66
2022/05/07 08:11:42;;;;;;;5.15;3.60;;;20.90;46.60;19.80;101905.00;;;;5024299;28;20128;-66
2022/05/07 08:14:28;;;;;;;12.10;5.22;;;20.90;46.60;19.80;101908.00;;;;5037182;28;20040;-66
2022/05/07 08:17:15;;;;;;;6.38;4.30;;;20.90;46.70;19.80;101908.00;;;;5043412;28;20530;-66
2022/05/07 08:20:01;;;;;;;10.10;5.90;;;20.90;46.70;19.80;101914.00;;;;5040630;28;20051;-66
2022/05/07 08:22:47;;;;;;;11.02;8.40;;;21.00;47.10;19.80;101906.00;;;;5035780;28;20049;-66
2022/05/07 08:25:33;;;;;;;13.68;9.73;;;20.90;47.50;19.80;101911.00;;;;5042036;28;20479;-66
2022/05/07 08:28:20;;;;;;;16.27;9.90;;;21.00;47.60;19.80;101910.00;;;;5027069;28;20048;-66
2022/05/07 08:31:06;;;;;;;10.23;8.27;;;21.00;47.60;19.80;101903.00;;;;5041600;28;20152;-66
2022/05/07 08:33:54;;;;;;;12.55;7.35;;;21.00;47.50;19.80;101906.00;;;;5027857;28;20417;-66
2022/05/07 08:36:40;;;;;;;14.25;7.32;;;21.00;47.40;19.80;101909.00;;;;5040611;28;20045;-66
2022/05/07 08:39:27;;;;;;;7.72;6.30;;;20.90;47.20;19.80;101906.00;;;;5041909;28;20053;-65
2022/05/07 08:42:13;;;;;;;9.73;7.07;;;21.00;47.20;19.80;101909.00;;;;5037785;28;20041;-65
2022/05/07 08:44:59;;;;;;;10.27;6.80;;;21.00;47.20;19.80;101910.00;;;;5022213;28;20284;-65
2022/05/07 08:47:46;;;;;;;9.30;6.85;;;21.00;47.30;19.90;101906.00;;;;5013183;28;20037;-65
2022/05/07 08:50:32;;;;;;;11.50;6.60;;;21.00;47.20;19.80;101903.00;;;;5033927;28;20036;-66
2022/05/07 08:53:19;;;;;;;7.80;6.32;;;21.00;47.30;19.90;101902.00;;;;5027631;28;20486;-66
2022/05/07 08:56:05;;;;;;;8.90;6.20;;;21.00;47.30;19.90;101901.00;;;;5000298;28;20049;-66
2022/05/07 08:58:52;;;;;;;9.85;6.53;;;21.00;47.20;19.90;101901.00;;;;5041333;28;20049;-65
2022/05/07 09:01:39;;;;;;;12.73;8.10;;;21.00;47.20;19.90;101900.00;;;;5023285;28;20086;-66
2022/05/07 09:04:25;;;;;;;12.73;7.35;;;21.00;47.30;19.90;101902.00;;;;5047072;28;20036;-65
2022/05/07 09:07:17;;;;;;;15.85;7.30;;;21.00;47.30;19.90;101901.00;;;;5023975;28;20411;-65
2022/05/07 09:10:10;;;;;;;8.70;6.15;;;21.00;47.20;19.90;101903.00;;;;5036853;28;20039;-65
2022/05/07 09:13:13;;;;;;;9.40;5.60;;;21.00;47.20;19.90;101906.00;;;;5039663;28;20041;-65
2022/05/07 09:16:00;;;;;;;11.82;6.22;;;21.00;47.20;19.90;101902.00;;;;5025934;28;20535;-66
2022/05/07 09:18:48;;;;;;;9.57;6.50;;;21.00;47.20;19.90;101901.00;;;;5028584;28;20037;-65
2022/05/07 09:21:35;;;;;;;10.00;5.97;;;21.10;47.20;19.90;101899.00;;;;5018910;28;20280;-65
2022/05/07 09:24:22;;;;;;;10.80;6.13;;;21.10;47.10;19.90;101901.00;;;;5035415;28;20052;-65
2022/05/07 09:27:16;;;;;;;8.70;6.35;;;21.10;47.10;19.90;101897.00;;;;5023492;28;20131;-65
2022/05/07 09:30:03;;;;;;;9.45;5.88;;;21.10;47.10;19.90;101896.00;;;;5039465;28;20135;-66
2022/05/07 09:32:51;;;;;;;8.95;5.72;;;21.10;47.00;19.90;101893.00;;;;5038017;28;20040;-65
2022/05/07 09:35:49;;;;;;;12.95;6.72;;;21.10;46.90;19.90;101890.00;;;;5014884;28;20045;-65
2022/05/07 09:38:35;;;;;;;13.35;6.57;;;21.10;46.90;19.90;101898.00;;;;5044026;28;20033;-66
2022/05/07 09:41:21;;;;;;;15.98;8.10;;;21.10;46.90;19.90;101891.00;;;;5028599;28;20041;-65
2022/05/07 09:44:07;;;;;;;17.42;8.20;;;21.10;47.10;19.90;101888.00;;;;5041264;28;20060;-65
2022/05/07 09:46:53;;;;;;;15.65;8.43;;;21.10;47.00;19.90;101886.00;;;;5027437;28;20033;-66
2022/05/07 09:50:20;;;;;;;14.30;6.72;;;21.10;47.20;19.90;101889.00;;;;5040326;28;20057;-65
2022/05/07 09:58:59;;;;;;;18.30;7.85;;;21.10;46.90;19.90;101880.00;;;;5035465;28;20042;-66
2022/05/07 10:02:12;;;;;;;10.05;6.25;;;21.20;47.00;19.90;101885.00;;;;5009991;28;20092;-66
2022/05/07 10:05:29;;;;;;;11.10;6.53;;;21.20;47.00;20.00;101890.00;;;;5024046;28;20497;-65
2022/05/07 10:08:27;;;;;;;14.32;7.75;;;21.20;47.00;19.90;101878.00;;;;5031700;28;20091;-65
2022/05/07 10:11:14;;;;;;;14.63;6.70;;;21.20;46.90;19.90;101887.00;;;;5041151;28;20042;-66
2022/05/07 10:14:00;;;;;;;9.07;6.20;;;21.20;47.50;20.00;101883.00;;;;5015346;28;20057;-65
2022/05/07 10:16:46;;;;;;;14.65;6.93;;;21.20;46.80;20.00;101878.00;;;;5013175;28;20045;-66
2022/05/07 10:19:46;;;;;;;8.65;6.13;;;21.20;46.80;20.00;101885.00;;;;5008560;28;20091;-66
2022/05/07 10:22:32;;;;;;;13.15;6.15;;;21.20;46.90;20.00;101889.00;;;;5033067;28;20047;-66
2022/05/07 10:25:19;;;;;;;9.35;6.22;;;21.20;46.80;20.00;101880.00;;;;5025444;28;20045;-66
2022/05/07 10:28:09;;;;;;;10.05;5.90;;;21.20;46.80;20.00;101881.00;;;;5042946;28;20037;-66
2022/05/07 10:30:55;;;;;;;10.40;6.28;;;21.30;46.80;20.00;101874.00;;;;5011882;28;20048;-66
2022/05/07 10:33:41;;;;;;;9.18;5.55;;;21.20;46.70;20.00;101873.00;;;;5046598;28;20473;-66
2022/05/07 10:36:37;;;;;;;10.15;5.40;;;21.30;46.70;20.00;101870.00;;;;5034515;28;20046;-66
2022/05/07 10:39:23;;;;;;;9.13;5.88;;;21.20;46.70;20.00;101870.00;;;;5020190;28;20041;-66
2022/05/07 10:42:16;;;;;;;10.02;6.63;;;21.20;46.70;20.00;101872.00;;;;5017369;28;20041;-66
2022/05/07 10:45:20;;;;;;;8.90;5.25;;;21.30;46.70;20.00;101871.00;;;;5023950;28;20057;-66
2022/05/07 10:48:17;;;;;;;9.40;5.50;;;21.20;46.60;20.00;101858.00;;;;5018525;28;20640;-66
2022/05/07 10:51:03;;;;;;;7.93;5.65;;;21.30;46.70;20.00;101860.00;;;;5046695;28;20099;-66
2022/05/07 10:53:50;;;;;;;9.27;5.40;;;21.20;46.60;20.00;101854.00;;;;5041152;28;20048;-66
2022/05/07 10:56:36;;;;;;;8.70;5.70;;;21.30;46.70;20.00;101855.00;;;;5020219;28;20480;-66
2022/05/07 10:59:24;;;;;;;8.30;5.20;;;21.30;46.70;20.00;101851.00;;;;5008997;28;20058;-66
2022/05/07 11:02:11;;;;;;;11.77;5.85;;;21.30;46.70;20.00;101846.00;;;;5026225;28;20052;-66
2022/05/07 11:04:57;;;;;;;8.82;5.82;;;21.30;46.70;20.00;101852.00;;;;5039250;28;20041;-66
2022/05/07 11:07:43;;;;;;;10.00;6.05;;;21.20;46.60;20.00;101849.00;;;;5041284;28;20045;-66
2022/05/07 11:10:30;;;;;;;7.53;4.97;;;21.30;46.60;20.00;101851.00;;;;5024164;28;20071;-66
2022/05/07 11:13:19;;;;;;;9.13;5.45;;;21.30;46.70;20.00;101859.00;;;;5033687;28;20174;-66
2022/05/07 11:16:06;;;;;;;7.05;4.95;;;21.20;46.60;20.00;101860.00;;;;5023622;28;20042;-66
2022/05/07 11:18:54;;;;;;;6.55;5.07;;;21.30;47.30;20.00;101856.00;;;;5028466;28;20506;-66
2022/05/07 11:21:43;;;;;;;6.57;4.97;;;21.20;46.60;20.00;101848.00;;;;5024492;28;20711;-66
2022/05/07 11:24:33;;;;;;;7.30;5.13;;;21.20;46.60;20.00;101853.00;;;;5049951;28;20081;-66
2022/05/07 11:27:19;;;;;;;6.90;4.80;;;21.20;46.90;20.00;101851.00;;;;5038863;28;20127;-66
2022/05/07 11:30:05;;;;;;;8.05;4.68;;;21.30;46.70;20.00;101846.00;;;;4994848;28;20077;-66
2022/05/07 11:32:53;;;;;;;7.68;5.40;;;21.30;46.70;20.00;101841.00;;;;5006364;28;20128;-66
2022/05/07 11:35:40;;;;;;;6.07;4.63;;;21.30;46.80;20.00;101847.00;;;;5037073;28;20065;-65
2022/05/07 11:38:26;;;;;;;6.65;5.38;;;21.30;46.80;20.00;101848.00;;;;5039655;28;20056;-65
2022/05/07 11:41:14;;;;;;;7.53;5.43;;;21.30;46.70;20.00;101841.00;;;;5039397;28;20045;-65
2022/05/07 11:47:04;;;;;;;7.57;4.97;;;21.30;46.70;20.00;101838.00;;;;5030613;28;20041;-66
2022/05/07 11:50:06;;;;;;;7.72;5.40;;;21.20;46.70;20.00;101833.00;;;;5017669;28;20778;-66
2022/05/07 11:52:53;;;;;;;6.05;5.15;;;21.20;46.60;20.00;101840.00;;;;5023749;28;20072;-66
2022/05/07 11:55:39;;;;;;;6.87;5.10;;;21.30;46.70;20.00;101845.00;;;;5011002;28;20621;-66
2022/05/07 11:58:25;;;;;;;5.82;4.65;;;21.30;46.60;20.00;101827.00;;;;5017787;28;20334;-66
2022/05/07 12:01:26;;;;;;;6.38;5.13;;;21.30;46.60;20.10;101830.00;;;;5038221;28;20044;-66
2022/05/07 12:04:13;;;;;;;8.95;6.13;;;21.30;46.60;20.00;101820.00;;;;5039319;28;20050;-66
2022/05/07 12:06:59;;;;;;;8.93;4.72;;;21.30;46.50;20.00;101821.00;;;;5037367;28;20032;-66
2022/05/07 12:09:45;;;;;;;8.02;4.90;;;21.30;46.60;20.10;101820.00;;;;5033388;28;20137;-66
2022/05/07 12:12:31;;;;;;;8.23;5.10;;;21.30;46.50;20.10;101816.00;;;;5041838;28;20041;-66
2022/05/07 12:17:51;;;;;;;8.52;5.35;;;21.30;46.40;20.10;101816.00;;;;5035564;28;20041;-66
2022/05/07 12:18:24;;;;;;;9.45;4.95;;;21.40;46.40;20.10;101822.00;;;;5021610;28;20137;-66
2022/05/07 12:21:10;;;;;;;8.15;4.57;;;21.40;46.30;20.10;101823.00;;;;5023871;28;20044;-67
2022/05/07 12:30:06;;;;;;;5.85;3.85;;;21.40;46.30;20.10;101816.00;;;;5035834;28;20037;-66
2022/05/07 12:32:54;;;;;;;7.57;4.80;;;21.40;46.30;20.10;101819.00;;;;5020994;28;20387;-66
2022/05/07 12:35:40;;;;;;;7.05;4.20;;;21.40;46.10;20.10;101812.00;;;;5037525;28;20079;-66
2022/05/07 12:38:27;;;;;;;7.03;4.45;;;21.40;46.10;20.10;101810.00;;;;5034736;28;20033;-66
2022/05/07 12:41:13;;;;;;;5.90;3.75;;;21.40;46.20;20.10;101800.00;;;;5031686;28;20555;-66
2022/05/07 12:44:00;;;;;;;5.35;3.60;;;21.40;46.20;20.10;101807.00;;;;5033786;28;20052;-66